createdAt,value
2019-05-22T00:00:31.880Z,1.50
2019-05-22T00:03:05.159Z,2.13
2019-05-22T00:05:38.364Z,1.63
2019-05-22T00:08:09.247Z,1.27
2019-05-22T00:10:39.511Z,1.60
2019-05-22T00:13:13.021Z,1.60
2019-05-22T00:15:43.097Z,1.80
2019-05-22T00:18:13.031Z,1.70
2019-05-22T00:20:42.133Z,1.73
2019-05-22T00:23:12.680Z,1.90
2019-05-22T00:25:43.621Z,2.10
2019-05-22T00:28:12.960Z,1.90
2019-05-22T00:30:44.642Z,1.57
2019-05-22T00:33:14.851Z,1.80
2019-05-22T00:35:45.380Z,2.03
2019-05-22T00:38:15.256Z,1.80
2019-05-22T00:40:45.742Z,2.33
2019-05-22T00:43:17.120Z,1.83
2019-05-22T00:45:48.867Z,2.60
2019-05-22T00:48:20.617Z,2.23
2019-05-22T00:51:04.205Z,2.40
2019-05-22T00:53:38.112Z,2.50
2019-05-22T00:56:17.950Z,2.57
2019-05-22T00:58:50.294Z,2.23
2019-05-22T01:01:23.489Z,2.07
2019-05-22T01:03:53.763Z,2.40
2019-05-22T01:06:22.873Z,2.90
2019-05-22T01:08:52.712Z,2.30
2019-05-22T01:11:23.751Z,2.70
2019-05-22T01:13:53.968Z,2.60
2019-05-22T01:16:24.993Z,2.70
2019-05-22T01:18:53.706Z,3.00
2019-05-22T03:18:03.825Z,3.87
2019-05-22T03:20:35.884Z,3.57
2019-05-22T03:23:19.271Z,3.57
2019-05-22T03:25:47.859Z,4.10
2019-05-22T03:28:17.117Z,3.43
2019-05-22T03:30:47.171Z,3.30
2019-05-22T03:33:16.536Z,4.33
2019-05-22T03:35:51.057Z,3.80
2019-05-22T03:38:20.642Z,3.80
2019-05-22T03:40:52.232Z,3.30
2019-05-22T03:43:24.841Z,3.67
2019-05-22T03:45:56.217Z,3.97
2019-05-22T03:48:27.483Z,4.07
2019-05-22T03:50:59.820Z,4.37
2019-05-22T03:53:28.825Z,4.27
2019-05-22T03:55:57.787Z,4.00
2019-05-22T03:58:26.915Z,3.80
2019-05-22T04:00:58.149Z,3.47
2019-05-22T04:03:27.583Z,4.07
2019-05-22T04:05:56.594Z,3.63
2019-05-22T04:08:26.583Z,3.77
2019-05-22T04:11:05.239Z,3.43
2019-05-22T04:13:34.449Z,4.23
2019-05-22T04:16:05.191Z,4.03
2019-05-22T04:18:36.122Z,3.70
2019-05-22T04:21:05.210Z,4.33
2019-05-22T04:23:34.203Z,4.23
2019-05-22T04:26:05.275Z,3.90
2019-05-22T04:28:35.721Z,4.00
2019-05-22T04:31:04.496Z,3.67
2019-05-22T04:33:33.185Z,4.10
2019-05-22T04:36:02.942Z,4.37
2019-05-22T04:38:32.318Z,3.90
2019-05-22T04:41:04.581Z,3.70
2019-05-22T04:43:34.261Z,3.83
2019-05-22T04:46:06.541Z,4.03
2019-05-22T04:48:36.481Z,3.47
2019-05-22T04:51:25.239Z,3.70
2019-05-22T04:53:54.998Z,3.77
2019-05-22T04:56:24.308Z,4.03
2019-05-22T04:58:54.594Z,4.03
2019-05-22T05:01:23.963Z,3.70
2019-05-22T05:03:53.703Z,3.67
2019-05-22T05:06:23.858Z,3.77
2019-05-22T05:08:52.874Z,4.50
2019-05-22T05:11:21.770Z,3.70
2019-05-22T05:13:50.335Z,3.60
2019-05-22T05:16:18.987Z,3.97
2019-05-22T05:18:48.494Z,3.67
2019-05-22T05:21:17.268Z,3.93
2019-05-22T05:23:46.313Z,4.07
2019-05-22T05:26:15.433Z,3.53
2019-05-22T05:28:45.116Z,3.73
2019-05-22T05:31:14.300Z,3.30
2019-05-22T05:33:57.934Z,3.80
2019-05-22T05:36:26.496Z,3.67
2019-05-22T05:38:55.748Z,4.20
2019-05-22T05:41:24.386Z,3.33
2019-05-22T05:43:53.421Z,3.63
2019-05-22T05:46:22.366Z,3.97
2019-05-22T05:48:52.442Z,4.10
2019-05-22T05:51:23.366Z,3.67
2019-05-22T05:53:58.721Z,3.87
2019-05-22T05:56:29.585Z,4.43
2019-05-22T05:59:00.328Z,4.20
2019-05-22T06:01:30.536Z,3.70
2019-05-22T06:04:00.437Z,3.97
2019-05-22T06:06:34.817Z,3.83
2019-05-22T06:09:05.139Z,4.43
2019-05-22T06:11:39.647Z,4.20
2019-05-22T06:14:10.124Z,4.40
2019-05-22T06:16:52.367Z,3.73
2019-05-22T06:19:22.317Z,3.93
2019-05-22T06:21:51.746Z,4.23
2019-05-22T06:24:33.168Z,4.03
2019-05-22T06:27:05.661Z,3.93
2019-05-22T06:29:49.768Z,4.03
2019-05-22T06:32:30.711Z,3.80
2019-05-22T06:35:00.312Z,4.13
2019-05-22T06:37:40.924Z,3.57
2019-05-22T06:40:11.794Z,4.07
2019-05-22T06:42:43.803Z,4.33
2019-05-22T06:45:12.598Z,3.40
2019-05-22T06:47:41.360Z,3.80
2019-05-22T06:50:11.131Z,4.03
2019-05-22T06:52:39.913Z,4.67
2019-05-22T06:55:08.895Z,4.13
2019-05-22T06:57:37.628Z,3.30
2019-05-22T07:00:14.916Z,3.97
2019-05-22T07:02:41.443Z,4.00
2019-05-22T07:05:11.511Z,3.70
2019-05-22T07:07:41.353Z,3.70
2019-05-22T07:10:12.557Z,3.70
2019-05-22T07:12:42.979Z,3.57
2019-05-22T07:15:18.384Z,3.20
2019-05-22T07:17:47.630Z,3.00
2019-05-22T07:20:18.293Z,3.33
2019-05-22T07:22:47.549Z,3.50
2019-05-22T07:25:18.115Z,3.00
2019-05-22T07:27:48.232Z,3.87
2019-05-22T07:30:17.614Z,3.00
2019-05-22T07:32:46.343Z,3.40
2019-05-22T07:35:15.357Z,3.07
2019-05-22T07:37:46.850Z,2.97
2019-05-22T07:40:18.696Z,3.30
2019-05-22T07:42:49.667Z,3.07
2019-05-22T07:45:19.991Z,3.50
2019-05-22T07:47:49.055Z,3.13
2019-05-22T07:50:18.436Z,2.97
2019-05-22T07:52:47.940Z,2.77
2019-05-22T07:55:17.133Z,2.80
2019-05-22T07:57:48.780Z,3.10
2019-05-22T08:00:18.151Z,3.10
2019-05-22T08:02:49.150Z,2.70
2019-05-22T08:05:20.793Z,2.60
2019-05-22T08:07:51.632Z,3.47
2019-05-22T08:10:21.952Z,3.00
2019-05-22T08:12:52.011Z,3.10
2019-05-22T08:15:21.383Z,3.57
2019-05-22T08:17:50.289Z,2.70
2019-05-22T08:20:18.972Z,3.20
2019-05-22T08:22:49.880Z,2.50
2019-05-22T08:25:19.217Z,2.60
2019-05-22T08:27:49.584Z,2.53
2019-05-22T08:30:19.187Z,2.20
2019-05-22T08:32:48.393Z,2.70
2019-05-22T08:35:36.862Z,2.60
2019-05-22T08:38:08.088Z,2.43
2019-05-22T08:40:39.499Z,2.70
2019-05-22T08:43:09.386Z,2.40
2019-05-22T08:45:39.041Z,2.50
2019-05-22T08:48:07.847Z,2.20
2019-05-22T08:50:37.630Z,2.53
2019-05-22T08:53:07.080Z,2.30
2019-05-22T08:55:36.222Z,2.67
2019-05-22T08:58:05.933Z,2.70
2019-05-22T09:00:35.292Z,2.30
2019-05-22T09:03:05.940Z,2.80
2019-05-22T09:05:34.933Z,3.10
2019-05-22T09:08:03.617Z,2.50
2019-05-22T09:10:33.288Z,2.60
2019-05-22T09:13:02.025Z,2.70
2019-05-22T09:15:31.724Z,3.07
2019-05-22T09:18:01.402Z,2.90
2019-05-22T09:20:30.155Z,2.63
2019-05-22T09:22:59.712Z,2.33
2019-05-22T09:25:29.083Z,1.90
2019-05-22T09:27:57.992Z,2.00
2019-05-22T09:30:27.245Z,2.40
2019-05-22T09:32:57.221Z,2.80
2019-05-22T09:35:26.283Z,2.40
2019-05-22T09:37:54.900Z,2.60
2019-05-22T09:40:23.802Z,2.77
2019-05-22T09:42:52.920Z,2.10
2019-05-22T09:45:22.116Z,2.13
2019-05-22T09:47:51.927Z,1.90
2019-05-22T09:50:23.924Z,1.90
2019-05-22T09:52:57.532Z,1.83
2019-05-22T09:55:23.406Z,2.17
2019-05-22T09:57:52.159Z,1.97
2019-05-22T10:00:22.916Z,2.23
2019-05-22T10:02:51.902Z,1.80
2019-05-22T10:05:21.061Z,1.73
2019-05-22T10:08:00.577Z,1.63
2019-05-22T10:10:21.267Z,1.70
2019-05-22T10:12:50.221Z,1.97
2019-05-22T10:15:19.079Z,1.80
2019-05-22T10:17:49.776Z,1.73
2019-05-22T10:20:20.284Z,1.57
2019-05-22T10:22:49.641Z,1.63
2019-05-22T10:25:18.660Z,1.77
2019-05-22T10:27:48.735Z,1.80
2019-05-22T10:30:20.809Z,1.90
2019-05-22T10:32:50.147Z,1.77
2019-05-22T10:35:22.481Z,2.20
2019-05-22T10:37:52.039Z,2.00
2019-05-22T10:40:21.456Z,2.20
2019-05-22T10:42:50.173Z,1.90
2019-05-22T10:45:19.101Z,1.80
2019-05-22T10:47:49.220Z,2.00
2019-05-22T10:50:19.702Z,2.20
2019-05-22T10:52:53.997Z,1.90
2019-05-22T10:55:20.989Z,2.10
2019-05-22T10:57:50.075Z,2.23
2019-05-22T11:00:20.029Z,2.70
2019-05-22T11:02:49.581Z,2.40
2019-05-22T11:05:20.349Z,2.30
2019-05-22T11:07:50.468Z,3.63
2019-05-22T11:10:22.541Z,2.73
2019-05-22T11:12:51.938Z,2.90
2019-05-22T11:15:41.363Z,2.40
2019-05-22T11:18:10.643Z,2.40
2019-05-22T11:20:39.414Z,3.97
2019-05-22T11:23:08.375Z,3.30
2019-05-22T11:25:36.923Z,2.60
2019-05-22T11:28:06.008Z,2.67
2019-05-22T11:30:35.977Z,2.23
2019-05-22T11:33:05.456Z,2.37
2019-05-22T11:35:35.253Z,2.73
2019-05-22T11:38:04.873Z,3.30
2019-05-22T11:40:34.403Z,3.07
2019-05-22T11:43:04.239Z,2.20
2019-05-22T11:45:33.247Z,2.73
2019-05-22T11:48:01.926Z,2.47
2019-05-22T11:50:31.413Z,2.03
2019-05-22T11:53:00.073Z,2.40
2019-05-22T11:55:44.424Z,2.20
2019-05-22T11:57:59.953Z,2.10
2019-05-22T12:00:29.775Z,2.40
2019-05-22T12:03:00.114Z,2.40
2019-05-22T12:05:28.818Z,2.30
2019-05-22T12:07:58.197Z,2.40
2019-05-22T12:10:26.921Z,2.20
2019-05-22T12:13:15.153Z,2.27
2019-05-22T12:15:44.252Z,2.60
2019-05-22T12:18:13.280Z,1.97
2019-05-22T12:20:41.800Z,2.30
2019-05-22T12:23:10.872Z,2.17
2019-05-22T12:25:39.961Z,2.10
2019-05-22T12:28:08.992Z,1.97
2019-05-22T12:30:38.191Z,1.90
2019-05-22T12:33:13.249Z,2.33
2019-05-22T12:35:39.880Z,2.50
2019-05-22T12:38:09.812Z,2.20
2019-05-22T12:40:39.377Z,2.13
2019-05-22T12:43:08.841Z,2.33
2019-05-22T12:45:37.559Z,2.37
2019-05-22T12:48:06.940Z,2.20
2019-05-22T12:50:36.726Z,2.03
2019-05-22T12:53:07.588Z,2.00
2019-05-22T12:55:36.675Z,2.57
2019-05-22T12:58:06.681Z,2.93
2019-05-22T13:00:36.052Z,2.27
2019-05-22T13:03:07.091Z,2.40
2019-05-22T13:05:39.316Z,1.77
2019-05-22T13:08:08.850Z,2.10
2019-05-22T13:10:38.508Z,2.20
2019-05-22T13:13:07.887Z,2.63
2019-05-22T13:15:38.968Z,2.40
2019-05-22T13:18:10.180Z,2.73
2019-05-22T13:20:43.191Z,2.20
2019-05-22T13:23:13.853Z,2.20
2019-05-22T13:25:43.391Z,1.83
2019-05-22T13:28:14.502Z,2.03
2019-05-22T13:30:46.464Z,2.50
2019-05-22T13:33:19.072Z,1.97
2019-05-22T13:35:47.792Z,1.97
2019-05-22T13:38:17.671Z,2.33
2019-05-22T13:40:48.236Z,2.20
2019-05-22T13:43:17.329Z,2.37
2019-05-22T13:45:46.416Z,2.00
2019-05-22T13:48:15.675Z,1.93
2019-05-22T13:50:45.131Z,2.00
2019-05-22T13:53:15.934Z,2.40
2019-05-22T13:55:46.113Z,2.17
2019-05-22T13:58:15.801Z,1.70
2019-05-22T14:00:44.865Z,2.73
2019-05-22T14:03:14.624Z,2.23
2019-05-22T14:05:43.730Z,2.00
2019-05-22T14:08:12.989Z,2.20
2019-05-22T14:10:42.747Z,2.00
2019-05-22T14:13:11.771Z,1.83
2019-05-22T14:15:50.440Z,2.37
2019-05-22T14:18:11.298Z,2.07
2019-05-22T14:20:40.159Z,2.10
2019-05-22T14:23:09.223Z,2.40
2019-05-22T14:25:38.016Z,2.17
2019-05-22T14:28:07.797Z,2.03
2019-05-22T14:30:37.480Z,2.40
2019-05-22T14:33:06.697Z,2.53
2019-05-22T14:35:47.697Z,3.03
2019-05-22T14:38:09.103Z,2.20
2019-05-22T14:40:38.541Z,2.00
2019-05-22T14:43:07.835Z,2.30
2019-05-22T14:45:37.252Z,2.53
2019-05-22T14:48:06.142Z,2.07
2019-05-22T14:50:35.250Z,2.70
2019-05-22T14:53:04.180Z,2.87
2019-05-22T14:55:34.900Z,2.10
2019-05-22T14:58:05.455Z,2.07
2019-05-22T15:00:36.193Z,1.63
2019-05-22T15:03:05.114Z,1.73
2019-05-22T15:05:34.008Z,2.10
2019-05-22T15:08:03.730Z,1.70
2019-05-22T15:10:33.151Z,1.97
2019-05-22T15:13:02.276Z,2.13
2019-05-22T15:15:31.694Z,1.80
2019-05-22T15:18:00.515Z,1.90
2019-05-22T15:20:34.258Z,2.30
2019-05-22T15:23:03.176Z,3.27
2019-05-22T15:25:32.443Z,2.37
2019-05-22T15:28:01.979Z,2.27
2019-05-22T15:30:31.140Z,2.73
2019-05-22T15:32:59.862Z,1.87
2019-05-22T15:35:29.123Z,2.00
2019-05-22T15:37:59.164Z,2.30
2019-05-22T15:40:29.448Z,2.23
2019-05-22T15:42:58.705Z,2.10
2019-05-22T15:45:29.337Z,1.80
2019-05-22T15:48:02.303Z,1.87
2019-05-22T15:50:34.015Z,2.10
2019-05-22T15:53:10.378Z,1.90
2019-05-22T15:55:39.155Z,1.60
2019-05-22T15:58:09.849Z,1.70
2019-05-22T16:00:40.318Z,1.80
2019-05-22T16:03:12.645Z,1.83
2019-05-22T16:05:43.581Z,1.67
2019-05-22T16:08:15.028Z,2.00
2019-05-22T16:10:46.687Z,1.57
2019-05-22T16:13:18.025Z,2.93
2019-05-22T16:15:49.922Z,1.37
2019-05-22T16:18:22.281Z,1.47
2019-05-22T16:20:51.807Z,1.60
2019-05-22T16:23:22.104Z,1.60
2019-05-22T16:25:52.939Z,1.60
2019-05-22T16:28:22.864Z,1.70
2019-05-22T16:30:55.476Z,1.73
2019-05-22T16:33:24.843Z,1.40
2019-05-22T16:35:54.046Z,1.87
2019-05-22T16:38:24.439Z,1.50
2019-05-22T16:40:53.668Z,1.70
2019-05-22T16:43:22.842Z,1.60
2019-05-22T16:45:53.021Z,1.90
2019-05-22T16:48:29.034Z,2.00
2019-05-22T16:50:53.735Z,2.20
2019-05-22T16:53:25.111Z,1.90
2019-05-22T16:55:56.497Z,3.37
2019-05-22T16:58:25.496Z,3.40
2019-05-22T17:00:56.686Z,1.87
2019-05-22T17:03:26.764Z,2.47
2019-05-22T17:05:55.918Z,1.57
2019-05-22T17:08:26.979Z,1.70
2019-05-22T17:10:58.663Z,1.73
2019-05-22T17:13:30.215Z,1.80
2019-05-22T17:15:59.914Z,2.20
2019-05-22T17:18:46.055Z,2.10
2019-05-22T17:21:03.176Z,2.00
2019-05-22T17:23:32.227Z,2.00
2019-05-22T17:26:01.225Z,2.10
2019-05-22T17:28:30.402Z,2.03
2019-05-22T17:31:00.389Z,2.07
2019-05-22T17:33:30.606Z,1.93
2019-05-22T17:36:00.502Z,1.63
2019-05-22T17:38:31.526Z,1.87
2019-05-22T17:41:02.868Z,1.83
2019-05-22T17:43:33.846Z,1.50
2019-05-22T17:46:04.114Z,1.80
2019-05-22T17:48:33.762Z,2.43
2019-05-22T17:51:04.454Z,2.20
2019-05-22T17:53:33.909Z,2.17
2019-05-22T17:56:02.551Z,2.37
2019-05-22T17:58:31.742Z,2.43
2019-05-22T18:01:00.835Z,4.07
2019-05-22T18:03:30.681Z,2.50
2019-05-22T18:05:59.837Z,2.00
2019-05-22T18:08:29.093Z,3.00
2019-05-22T18:10:59.504Z,2.83
2019-05-22T18:13:28.893Z,2.40
2019-05-22T18:15:58.182Z,2.13
2019-05-22T18:18:26.728Z,1.93
2019-05-22T18:20:55.290Z,2.73
2019-05-22T18:23:24.380Z,2.00
2019-05-22T18:25:53.303Z,1.90
2019-05-22T18:28:22.005Z,2.30
2019-05-22T18:30:51.088Z,1.50
2019-05-22T18:33:19.840Z,2.00
2019-05-22T18:35:48.593Z,1.90
2019-05-22T18:38:17.245Z,1.80
2019-05-22T18:40:46.187Z,1.93
2019-05-22T18:43:18.151Z,2.20
2019-05-22T18:45:45.532Z,2.30
2019-05-22T18:48:14.271Z,3.17
2019-05-22T18:50:43.340Z,2.30
2019-05-22T18:53:12.062Z,2.03
2019-05-22T18:55:40.697Z,2.03
2019-05-22T18:58:09.419Z,2.57
2019-05-22T19:00:38.400Z,2.77
2019-05-22T19:03:07.812Z,2.90
2019-05-22T19:05:37.942Z,2.50
2019-05-22T19:08:06.757Z,1.80
2019-05-22T19:10:35.955Z,2.60
2019-05-22T19:13:04.856Z,1.90
2019-05-22T19:15:33.605Z,1.90
2019-05-22T19:18:02.730Z,2.27
2019-05-22T19:20:31.475Z,2.20
2019-05-22T19:23:01.790Z,1.80
2019-05-22T19:25:30.609Z,2.57
2019-05-22T19:27:59.426Z,2.43
2019-05-22T19:30:28.377Z,3.00
2019-05-22T19:32:57.097Z,2.03
2019-05-22T19:35:25.699Z,2.10
2019-05-22T19:37:54.956Z,1.80
2019-05-22T19:40:23.743Z,1.90
2019-05-22T19:42:52.637Z,2.30
2019-05-22T19:45:22.267Z,2.13
2019-05-22T19:47:54.524Z,2.20
2019-05-22T19:50:25.399Z,2.10
2019-05-22T19:52:55.776Z,2.37
2019-05-22T19:55:28.796Z,3.00
2019-05-22T19:57:58.097Z,2.90
2019-05-22T20:00:27.972Z,2.73
2019-05-22T20:02:56.549Z,3.13
2019-05-22T20:05:25.532Z,2.73
2019-05-22T20:07:54.761Z,2.90
2019-05-22T20:10:23.671Z,2.27
2019-05-22T20:12:52.815Z,2.23
2019-05-22T20:15:22.946Z,2.00
2019-05-22T20:17:51.667Z,2.40
2019-05-22T20:20:22.421Z,2.23
2019-05-22T20:22:51.609Z,2.00
2019-05-22T20:25:22.049Z,2.57
2019-05-22T20:27:51.319Z,2.60
2019-05-22T20:30:22.944Z,2.83
2019-05-22T20:32:51.674Z,3.30
2019-05-22T20:35:20.445Z,3.00
2019-05-22T20:37:49.382Z,3.00
2019-05-22T20:40:20.272Z,3.03
2019-05-22T20:42:49.467Z,3.20
2019-05-22T20:45:21.053Z,3.07
2019-05-22T20:47:54.356Z,3.00
2019-05-22T20:50:24.624Z,2.87
2019-05-22T20:52:53.555Z,3.03
2019-05-22T20:55:22.679Z,2.80
2019-05-22T20:57:53.033Z,2.60
2019-05-22T21:00:21.916Z,3.47
2019-05-22T21:02:53.608Z,5.27
2019-05-22T21:05:25.311Z,3.53
2019-05-22T21:07:56.974Z,2.80
2019-05-22T21:10:26.127Z,2.73
2019-05-22T21:12:55.699Z,2.80
2019-05-22T21:15:24.581Z,2.57
2019-05-22T21:17:54.812Z,2.80
2019-05-22T21:20:25.496Z,2.93
2019-05-22T21:22:54.570Z,4.50
2019-05-22T21:25:24.968Z,4.20
2019-05-22T21:27:54.102Z,3.90
2019-05-22T21:30:24.528Z,3.50
2019-05-22T21:32:53.663Z,4.60
2019-05-22T21:35:23.756Z,3.90
2019-05-22T21:37:52.811Z,3.60
2019-05-22T21:40:22.997Z,4.17
2019-05-22T21:42:53.879Z,4.57
2019-05-22T21:45:41.831Z,4.03
2019-05-22T21:48:11.224Z,5.20
2019-05-22T21:50:41.016Z,5.43
2019-05-22T21:53:13.786Z,5.73
2019-05-22T21:55:45.503Z,4.47
2019-05-22T21:58:13.580Z,4.10
2019-05-22T22:00:50.120Z,3.23
2019-05-22T22:03:22.175Z,3.50
2019-05-22T22:05:50.983Z,3.10
2019-05-22T22:08:19.779Z,3.70
2019-05-22T22:10:49.540Z,3.67
2019-05-22T22:13:18.996Z,3.20
2019-05-22T22:15:49.171Z,2.90
2019-05-22T22:18:18.653Z,3.27
2019-05-22T22:20:47.892Z,3.23
2019-05-22T22:23:17.880Z,3.47
2019-05-22T22:25:46.805Z,3.53
2019-05-22T22:28:17.701Z,3.80
2019-05-22T22:30:53.856Z,2.97
2019-05-22T22:33:25.494Z,3.20
2019-05-22T22:35:55.448Z,3.10
2019-05-22T22:38:26.207Z,2.90
2019-05-22T22:40:56.873Z,3.33
2019-05-22T22:43:32.450Z,2.53
2019-05-22T22:46:23.021Z,2.90
2019-05-22T22:48:53.892Z,2.70
2019-05-22T22:51:35.644Z,3.00
2019-05-22T22:54:07.495Z,3.00
2019-05-22T22:56:37.690Z,3.27
2019-05-22T22:59:07.966Z,2.80
2019-05-22T23:01:41.461Z,3.47
2019-05-22T23:04:12.299Z,3.13
2019-05-22T23:06:41.462Z,3.10
2019-05-22T23:09:12.379Z,2.50
2019-05-22T23:11:41.835Z,3.27
2019-05-22T23:14:11.329Z,2.80
2019-05-22T23:16:40.966Z,2.97
2019-05-22T23:19:14.292Z,2.07
2019-05-22T23:21:41.762Z,3.00
2019-05-22T23:24:10.815Z,2.80
2019-05-22T23:26:40.397Z,3.10
2019-05-22T23:29:09.210Z,2.53
2019-05-22T23:31:38.327Z,2.90
2019-05-22T23:34:08.057Z,3.00
2019-05-22T23:36:37.482Z,3.13
2019-05-22T23:39:10.801Z,2.73
2019-05-22T23:41:40.969Z,2.83
2019-05-22T23:44:12.351Z,3.30
2019-05-22T23:46:42.941Z,2.90
2019-05-22T23:49:12.544Z,3.17
2019-05-22T23:51:42.141Z,3.40
2019-05-22T23:54:10.889Z,3.50
2019-05-22T23:56:40.002Z,3.30
2019-05-22T23:59:09.669Z,3.03
